Time;durP1;ratioP1;P1;durP2;ratioP2;P2;SDS_P1;SDS_P2;PMS_P1;PMS_P2;Temp;Humidity;BMP_temperature;BMP_pressure;BME280_temperature;BME280_humidity;BME280_pressure;Samples;Min_cycle;Max_cycle;Signal;HPM_P1;HPM_P2
2021/04/20 00:00:27;;;;;;;24.03;20.30;;;8.10;99.90;;;;;;5022371;28;20243;-78
2021/04/20 00:02:54;;;;;;;23.73;20.10;;;8.10;99.90;;;;;;5026022;28;20704;-79
2021/04/20 00:05:22;;;;;;;24.03;20.27;;;8.20;99.90;;;;;;5023230;28;20379;-78
2021/04/20 00:07:49;;;;;;;23.33;20.80;;;8.20;99.90;;;;;;5015470;28;20202;-77
2021/04/20 00:10:18;;;;;;;23.43;20.33;;;8.20;99.90;;;;;;5024342;28;20224;-77
2021/04/20 00:12:45;;;;;;;28.03;20.97;;;8.20;99.90;;;;;;5023936;28;20339;-77
2021/04/20 00:15:13;;;;;;;22.17;19.77;;;8.30;99.90;;;;;;5017013;28;20283;-78
2021/04/20 00:17:40;;;;;;;23.60;20.20;;;8.20;99.90;;;;;;5021304;28;20284;-78
2021/04/20 00:20:08;;;;;;;21.73;19.50;;;8.20;99.90;;;;;;5013618;28;20538;-78
2021/04/20 00:22:38;;;;;;;22.83;19.77;;;8.20;99.90;;;;;;5021837;28;20313;-79
2021/04/20 00:25:05;;;;;;;23.13;19.17;;;8.10;99.90;;;;;;5022398;28;20204;-78
2021/04/20 00:27:32;;;;;;;23.23;20.67;;;8.10;99.90;;;;;;5020514;28;20283;-77
2021/04/20 00:29:58;;;;;;;23.23;19.57;;;8.10;99.90;;;;;;5021639;28;20632;-78
2021/04/20 00:32:24;;;;;;;22.13;19.83;;;8.00;99.90;;;;;;5021262;28;20259;-78
2021/04/20 00:34:51;;;;;;;25.13;20.93;;;8.00;99.90;;;;;;5027145;28;20302;-78
2021/04/20 00:37:17;;;;;;;26.03;21.27;;;8.00;99.90;;;;;;5023848;28;20278;-78
2021/04/20 00:39:44;;;;;;;25.23;21.37;;;8.00;99.90;;;;;;5020990;28;20635;-78
2021/04/20 00:42:11;;;;;;;25.53;20.40;;;7.90;99.90;;;;;;5021667;28;20287;-78
2021/04/20 00:44:37;;;;;;;23.23;20.80;;;7.90;99.90;;;;;;5023028;28;20347;-78
2021/04/20 00:47:04;;;;;;;27.03;21.93;;;7.90;99.90;;;;;;5019710;28;20238;-78
2021/04/20 00:49:31;;;;;;;24.13;21.50;;;7.90;99.90;;;;;;5021064;28;20287;-77
2021/04/20 00:51:57;;;;;;;24.17;21.43;;;7.90;99.90;;;;;;5021534;28;20278;-79
2021/04/20 00:54:24;;;;;;;24.50;21.77;;;7.90;99.90;;;;;;5021725;28;20256;-78
2021/04/20 00:56:52;;;;;;;25.17;21.67;;;7.80;99.90;;;;;;5021208;28;20295;-79
2021/04/20 00:59:19;;;;;;;28.07;22.60;;;7.80;99.90;;;;;;5024506;28;20292;-79
2021/04/20 01:01:46;;;;;;;27.73;22.43;;;7.70;99.90;;;;;;5016536;28;20279;-79
2021/04/20 01:04:15;;;;;;;26.60;21.57;;;7.80;99.90;;;;;;5024073;28;20283;-79
2021/04/20 01:06:42;;;;;;;23.97;21.47;;;7.80;99.90;;;;;;5022607;28;20206;-79
2021/04/20 01:09:09;;;;;;;26.17;21.17;;;7.80;99.90;;;;;;5021946;28;20289;-79
2021/04/20 01:11:37;;;;;;;24.63;20.97;;;7.90;99.90;;;;;;5020548;28;20296;-79
2021/04/20 01:14:05;;;;;;;23.67;21.27;;;7.90;99.90;;;;;;5024999;28;20307;-79
2021/04/20 01:16:33;;;;;;;26.07;20.90;;;7.90;99.90;;;;;;5012850;28;20259;-79
2021/04/20 01:19:01;;;;;;;23.80;20.33;;;7.90;99.90;;;;;;5023483;28;20683;-79
2021/04/20 01:21:28;;;;;;;26.37;19.97;;;7.80;99.90;;;;;;5020945;28;20292;-79
2021/04/20 01:24:00;;;;;;;24.10;20.07;;;7.90;99.90;;;;;;5023785;28;20282;-79
2021/04/20 01:26:30;;;;;;;26.83;20.27;;;7.80;99.90;;;;;;5020462;28;20209;-80
2021/04/20 01:28:57;;;;;;;25.70;20.03;;;7.80;99.90;;;;;;5028338;28;20292;-79
2021/04/20 01:31:26;;;;;;;24.63;20.13;;;7.80;99.90;;;;;;5017892;28;20239;-79
2021/04/20 01:33:52;;;;;;;23.37;20.17;;;7.90;99.90;;;;;;5022894;28;20305;-79
2021/04/20 01:36:24;;;;;;;24.33;19.83;;;7.90;99.90;;;;;;5016841;28;20211;-79
2021/04/20 01:38:52;;;;;;;25.87;19.60;;;7.90;99.90;;;;;;5023314;28;20287;-79
2021/04/20 01:41:20;;;;;;;22.67;19.60;;;8.00;99.90;;;;;;5020479;28;20625;-79
2021/04/20 01:43:48;;;;;;;25.67;20.53;;;8.10;99.90;;;;;;5027700;28;20712;-79
2021/04/20 01:46:16;;;;;;;23.47;19.83;;;8.10;99.90;;;;;;5022342;28;20287;-79
2021/04/20 01:48:43;;;;;;;23.13;19.73;;;8.10;99.90;;;;;;5023284;28;20201;-78
2021/04/20 01:51:10;;;;;;;24.17;19.73;;;8.10;99.90;;;;;;5020186;28;20293;-79
2021/04/20 01:53:36;;;;;;;22.33;19.43;;;8.10;99.90;;;;;;5022766;28;20309;-79
2021/04/20 01:56:05;;;;;;;31.47;20.10;;;8.10;99.90;;;;;;5021943;28;20674;-80
2021/04/20 01:58:33;;;;;;;22.73;19.93;;;8.20;99.90;;;;;;5024946;28;20326;-78
2021/04/20 02:01:04;;;;;;;25.13;19.57;;;8.10;99.90;;;;;;5022480;28;20284;-78
2021/04/20 02:03:31;;;;;;;22.03;19.03;;;8.00;99.90;;;;;;5020275;28;20271;-78
2021/04/20 02:05:58;;;;;;;23.67;19.70;;;8.00;99.90;;;;;;5012115;28;20284;-78
2021/04/20 02:08:25;;;;;;;23.67;20.37;;;8.00;99.90;;;;;;5022306;28;20294;-78
2021/04/20 02:10:54;;;;;;;28.07;20.23;;;8.00;99.90;;;;;;5021808;28;20350;-78
2021/04/20 02:13:21;;;;;;;28.53;20.57;;;8.00;99.90;;;;;;5018151;28;20238;-78
2021/04/20 02:15:47;;;;;;;24.30;19.43;;;8.00;99.90;;;;;;5021891;28;20279;-78
2021/04/20 02:18:19;;;;;;;22.47;20.10;;;7.90;99.90;;;;;;5022762;28;20295;-78
2021/04/20 02:20:46;;;;;;;23.23;19.73;;;7.90;99.90;;;;;;5010910;28;20202;-78
2021/04/20 02:23:14;;;;;;;25.30;19.93;;;7.90;99.90;;;;;;5018744;28;20220;-78
2021/04/20 02:25:43;;;;;;;23.03;19.80;;;7.90;99.90;;;;;;5021731;28;20728;-78
2021/04/20 02:28:10;;;;;;;22.53;20.17;;;7.90;99.90;;;;;;5021453;28;20302;-78
2021/04/20 02:30:38;;;;;;;23.23;20.30;;;7.90;99.90;;;;;;5020062;28;20206;-79
2021/04/20 02:33:05;;;;;;;24.40;19.37;;;7.80;99.90;;;;;;5019447;28;20225;-78
2021/04/20 02:35:32;;;;;;;25.83;19.33;;;7.80;99.90;;;;;;5011888;28;20813;-78
2021/04/20 02:37:59;;;;;;;22.60;19.23;;;7.80;99.90;;;;;;5019743;28;20251;-78
2021/04/20 02:40:30;;;;;;;23.73;19.57;;;7.70;99.90;;;;;;5023005;28;20236;-78
2021/04/20 02:42:57;;;;;;;26.90;20.30;;;7.70;99.90;;;;;;5028347;28;20282;-78
2021/04/20 02:45:25;;;;;;;22.63;19.47;;;7.70;99.90;;;;;;5022144;28;20232;-78
2021/04/20 02:47:52;;;;;;;24.90;18.77;;;7.70;99.90;;;;;;5020614;28;20236;-78
2021/04/20 02:50:21;;;;;;;25.07;19.60;;;7.70;99.90;;;;;;5017195;28;20239;-78
2021/04/20 02:52:50;;;;;;;22.30;19.20;;;7.70;99.90;;;;;;5012670;28;20302;-78
2021/04/20 02:55:18;;;;;;;24.23;18.97;;;7.80;99.90;;;;;;5028075;28;20206;-79
2021/04/20 02:57:48;;;;;;;23.03;18.73;;;7.80;99.90;;;;;;5034469;28;20205;-78
2021/04/20 03:00:17;;;;;;;26.47;20.47;;;7.70;99.90;;;;;;5028719;28;20291;-78
2021/04/20 03:02:45;;;;;;;23.10;19.87;;;7.60;99.90;;;;;;5014868;28;20316;-78
2021/04/20 03:05:14;;;;;;;28.53;20.53;;;7.50;99.90;;;;;;5033249;28;20291;-78
2021/04/20 03:07:41;;;;;;;23.23;19.73;;;7.50;99.90;;;;;;5035195;28;20705;-77
2021/04/20 03:10:11;;;;;;;23.53;19.93;;;7.50;99.90;;;;;;5034464;28;20291;-79
2021/04/20 03:12:38;;;;;;;26.70;19.73;;;7.50;99.90;;;;;;5028122;28;20260;-79
2021/04/20 03:15:06;;;;;;;26.87;20.60;;;7.40;99.90;;;;;;5019002;28;20200;-79
2021/04/20 03:17:33;;;;;;;23.97;20.20;;;7.30;99.90;;;;;;5023249;28;20692;-80
2021/04/20 03:19:59;;;;;;;26.67;19.97;;;7.30;99.90;;;;;;5015009;28;20293;-79
2021/04/20 03:22:26;;;;;;;24.23;20.17;;;7.30;99.90;;;;;;5015255;28;20250;-79
2021/04/20 03:25:15;;;;;;;23.03;20.63;;;7.30;99.90;;;;;;5014931;28;20239;-79
2021/04/20 03:27:44;;;;;;;26.17;19.77;;;7.30;99.90;;;;;;4995404;28;20236;-79
2021/04/20 03:30:15;;;;;;;23.10;19.63;;;7.30;99.90;;;;;;4999861;28;20264;-79
2021/04/20 03:32:46;;;;;;;27.60;19.50;;;7.30;99.90;;;;;;5015051;28;20307;-79
2021/04/20 03:35:18;;;;;;;24.27;20.37;;;7.30;99.90;;;;;;5015029;28;20282;-79
2021/04/20 03:37:52;;;;;;;24.87;20.73;;;7.20;99.90;;;;;;5015229;28;20204;-79
2021/04/20 03:40:21;;;;;;;25.33;19.47;;;7.20;99.90;;;;;;5017588;28;20292;-79
2021/04/20 03:42:51;;;;;;;27.37;20.27;;;7.20;99.90;;;;;;5034731;28;20230;-79
2021/04/20 03:45:22;;;;;;;30.33;21.37;;;7.10;99.90;;;;;;5027873;28;20246;-79
2021/04/20 03:47:51;;;;;;;27.17;20.30;;;7.20;99.90;;;;;;5015104;28;20278;-79
2021/04/20 03:50:23;;;;;;;26.23;19.80;;;7.30;99.90;;;;;;5014475;28;20254;-79
2021/04/20 03:52:54;;;;;;;24.97;20.20;;;7.30;99.90;;;;;;5014405;28;20288;-79
2021/04/20 03:55:25;;;;;;;26.33;19.40;;;7.40;99.90;;;;;;5014528;28;20232;-80
2021/04/20 03:57:54;;;;;;;23.50;19.30;;;7.40;99.90;;;;;;5033083;28;20287;-79
2021/04/20 04:00:22;;;;;;;22.33;19.43;;;7.40;99.90;;;;;;5033635;28;20205;-79
2021/04/20 04:02:51;;;;;;;25.00;19.33;;;7.50;99.90;;;;;;5033566;28;20228;-79
2021/04/20 04:05:20;;;;;;;22.43;18.40;;;7.50;99.90;;;;;;5014046;28;20288;-79
2021/04/20 04:07:50;;;;;;;26.67;19.97;;;7.50;99.90;;;;;;5008692;28;20291;-79
2021/04/20 04:10:18;;;;;;;23.93;19.13;;;7.50;99.90;;;;;;5025384;28;20287;-80
2021/04/20 04:12:49;;;;;;;23.47;19.00;;;7.50;99.90;;;;;;5025099;28;20238;-79
2021/04/20 04:15:18;;;;;;;23.47;18.63;;;7.50;99.90;;;;;;5034173;28;20294;-79
2021/04/20 04:17:46;;;;;;;23.07;18.93;;;7.50;99.90;;;;;;5023493;28;20287;-80
2021/04/20 04:20:14;;;;;;;20.70;17.97;;;7.50;99.90;;;;;;5032738;28;20283;-79
2021/04/20 04:22:52;;;;;;;22.27;18.13;;;7.50;99.90;;;;;;5014263;28;20292;-79
2021/04/20 04:25:23;;;;;;;22.40;18.07;;;7.50;99.90;;;;;;5021811;28;20293;-79
2021/04/20 04:27:51;;;;;;;23.27;17.33;;;7.50;99.90;;;;;;5017284;28;20215;-79
2021/04/20 04:30:20;;;;;;;22.57;18.10;;;7.50;99.90;;;;;;5013924;28;20308;-79
2021/04/20 04:32:47;;;;;;;23.80;19.57;;;7.50;99.90;;;;;;5013990;28;20262;-80
2021/04/20 04:35:17;;;;;;;25.07;18.80;;;7.50;99.90;;;;;;5019714;28;20658;-79
2021/04/20 04:37:44;;;;;;;23.53;18.23;;;7.50;99.90;;;;;;5033102;28;20376;-79
2021/04/20 04:40:11;;;;;;;21.70;17.93;;;7.50;99.90;;;;;;5017298;28;20294;-79
2021/04/20 04:42:38;;;;;;;23.87;18.37;;;7.50;99.90;;;;;;5019191;28;20294;-79
2021/04/20 04:45:08;;;;;;;23.47;19.13;;;7.50;99.90;;;;;;5026472;28;20372;-79
2021/04/20 04:47:35;;;;;;;23.50;18.30;;;7.50;99.90;;;;;;5013601;28;20197;-79
2021/04/20 04:50:04;;;;;;;23.27;18.70;;;7.50;99.90;;;;;;5013800;28;20198;-79
2021/04/20 04:52:32;;;;;;;22.83;18.23;;;7.40;99.90;;;;;;5017851;28;20275;-79
2021/04/20 04:54:58;;;;;;;23.63;18.37;;;7.50;99.90;;;;;;5032702;28;20319;-79
2021/04/20 04:57:27;;;;;;;22.03;18.43;;;7.50;99.90;;;;;;5033144;28;20290;-79
2021/04/20 04:59:55;;;;;;;23.07;18.53;;;7.50;99.90;;;;;;5032800;28;20296;-79
2021/04/20 05:02:22;;;;;;;19.93;17.60;;;7.50;99.90;;;;;;5032411;28;20246;-79
2021/04/20 05:04:49;;;;;;;25.30;17.90;;;7.50;99.90;;;;;;5033118;28;20196;-79
2021/04/20 05:07:16;;;;;;;23.30;17.83;;;7.50;99.90;;;;;;5032960;28;20290;-79
2021/04/20 05:09:43;;;;;;;23.43;18.00;;;7.50;99.90;;;;;;5032787;28;20215;-79
2021/04/20 05:12:11;;;;;;;24.23;17.50;;;7.50;99.90;;;;;;5026651;28;20719;-79
2021/04/20 05:14:37;;;;;;;22.93;18.23;;;7.60;99.90;;;;;;5026298;28;20231;-79
2021/04/20 05:17:05;;;;;;;21.63;16.90;;;7.60;99.90;;;;;;5024413;28;20224;-80
2021/04/20 05:19:34;;;;;;;21.17;17.20;;;7.60;99.90;;;;;;5030483;28;20272;-79
2021/04/20 05:22:02;;;;;;;21.10;16.93;;;7.60;99.90;;;;;;5017404;28;20701;-79
2021/04/20 05:24:29;;;;;;;23.00;16.93;;;7.60;99.90;;;;;;4993607;28;20239;-79
2021/04/20 05:26:56;;;;;;;21.57;16.90;;;7.70;99.90;;;;;;5029246;28;20283;-79
2021/04/20 05:29:22;;;;;;;19.87;16.90;;;7.80;99.90;;;;;;5012738;28;20292;-80
2021/04/20 05:31:50;;;;;;;20.00;16.20;;;7.80;99.90;;;;;;5012848;28;20307;-79
2021/04/20 05:34:19;;;;;;;21.37;16.37;;;8.00;99.90;;;;;;5012761;28;20322;-79
2021/04/20 05:36:47;;;;;;;19.27;16.03;;;8.10;99.90;;;;;;5013300;28;20228;-80
2021/04/20 05:39:16;;;;;;;21.57;15.80;;;8.20;99.90;;;;;;5030776;28;20648;-79
2021/04/20 05:41:43;;;;;;;18.80;16.23;;;8.20;99.90;;;;;;5029375;28;20232;-80
2021/04/20 05:44:12;;;;;;;20.83;17.00;;;8.30;99.90;;;;;;5029614;28;20232;-79
2021/04/20 05:46:40;;;;;;;21.27;16.77;;;8.30;99.90;;;;;;5025042;28;20200;-80
2021/04/20 05:49:07;;;;;;;23.20;16.77;;;8.40;99.90;;;;;;5031828;28;20241;-81
2021/04/20 05:51:35;;;;;;;21.37;16.63;;;8.40;99.90;;;;;;5032057;28;20201;-79
2021/04/20 05:54:03;;;;;;;20.27;16.37;;;8.50;99.90;;;;;;5031607;28;20312;-82
2021/04/20 05:56:30;;;;;;;22.37;15.93;;;8.80;99.90;;;;;;5028382;28;20283;-81
2021/04/20 05:58:58;;;;;;;19.37;16.43;;;9.20;99.90;;;;;;5018159;28;20240;-81
2021/04/20 06:01:27;;;;;;;19.23;15.70;;;9.80;99.90;;;;;;5029424;28;20259;-82
2021/04/20 06:03:55;;;;;;;18.73;15.17;;;10.10;99.90;;;;;;5024700;28;20232;-82
2021/04/20 06:06:23;;;;;;;19.97;15.23;;;10.60;99.90;;;;;;5011771;28;20685;-81
2021/04/20 06:08:52;;;;;;;19.43;14.67;;;10.80;99.90;;;;;;5011751;28;20291;-82
2021/04/20 06:11:20;;;;;;;18.13;14.63;;;10.80;99.90;;;;;;5012074;28;20201;-82
2021/04/20 06:13:47;;;;;;;17.50;14.77;;;10.60;99.90;;;;;;5011347;28;20261;-82
2021/04/20 06:16:14;;;;;;;20.97;14.90;;;10.90;99.90;;;;;;5012685;28;20299;-82
2021/04/20 06:18:42;;;;;;;18.80;14.10;;;11.60;99.90;;;;;;5009146;28;20201;-82
2021/04/20 06:21:09;;;;;;;17.83;13.90;;;11.60;99.90;;;;;;5005817;28;20213;-82
2021/04/20 06:23:37;;;;;;;16.83;13.73;;;11.00;99.90;;;;;;5009573;28;20209;-80
2021/04/20 06:26:05;;;;;;;21.27;14.60;;;10.20;99.90;;;;;;5017870;28;20248;-79
2021/04/20 06:28:33;;;;;;;18.07;13.50;;;9.90;99.90;;;;;;5017854;28;20209;-79
2021/04/20 06:31:02;;;;;;;16.93;14.03;;;10.20;99.90;;;;;;5032859;28;20848;-78
2021/04/20 06:33:31;;;;;;;20.03;14.67;;;10.00;99.90;;;;;;5029094;28;20303;-79
2021/04/20 06:35:58;;;;;;;17.33;14.07;;;10.10;99.90;;;;;;5023077;28;20295;-78
2021/04/20 06:38:25;;;;;;;16.87;12.80;;;11.50;99.90;;;;;;5021965;28;20624;-78
2021/04/20 06:40:53;;;;;;;14.17;12.40;;;12.70;99.90;;;;;;5029255;28;20208;-78
2021/04/20 06:43:26;;;;;;;25.20;12.57;;;13.40;99.90;;;;;;5035931;28;20196;-78
2021/04/20 06:45:58;;;;;;;14.23;11.43;;;14.20;99.90;;;;;;5034509;28;20574;-79
2021/04/20 06:48:32;;;;;;;17.87;11.97;;;14.60;99.90;;;;;;5015996;28;20212;-78
2021/04/20 06:51:00;;;;;;;15.60;12.33;;;14.80;99.90;;;;;;4995599;28;20215;-78
2021/04/20 06:53:31;;;;;;;19.37;11.83;;;14.90;99.90;;;;;;5023543;28;20254;-82
2021/04/20 06:56:07;;;;;;;15.33;12.00;;;14.90;99.90;;;;;;5035312;28;20203;-78
2021/04/20 07:02:28;;;;;;;15.43;11.60;;;13.70;99.90;;;;;;4910051;29;20824;-79
2021/04/20 07:04:58;;;;;;;15.77;11.10;;;14.40;99.90;;;;;;4934190;29;20255;-78
2021/04/20 07:10:45;;;;;;;13.77;11.00;;;16.60;99.90;;;;;;4859700;29;20199;-79
2021/04/20 07:16:32;;;;;;;15.13;11.50;;;17.40;99.90;;;;;;4928493;29;20199;-79
2021/04/20 07:19:29;;;;;;;18.67;11.50;;;16.60;99.90;;;;;;4928135;29;20211;-79
2021/04/20 07:22:38;;;;;;;16.30;11.05;;;16.50;99.90;;;;;;4860432;29;20199;-79
2021/04/20 07:25:19;;;;;;;21.95;11.63;;;17.40;99.90;;;;;;4852537;29;20647;-78
2021/04/20 07:28:27;;;;;;;22.40;11.93;;;17.90;99.90;;;;;;4863435;29;20241;-78
2021/04/20 07:31:10;;;;;;;17.88;11.43;;;17.40;99.90;;;;;;4867711;29;20309;-78
2021/04/20 07:34:04;;;;;;;13.25;11.45;;;17.30;99.90;;;;;;4860570;29;20309;-78
2021/04/20 07:36:44;;;;;;;19.52;11.52;;;17.40;99.90;;;;;;4858263;29;20213;-78
2021/04/20 07:39:38;;;;;;;13.95;10.32;;;17.60;99.90;;;;;;4929003;29;20306;-79
2021/04/20 07:42:55;;;;;;;;;;;;;;;;;;;;;
2021/04/20 07:45:29;;;;;;;12.85;10.98;;;18.30;99.90;;;;;;4939282;29;20211;-78
2021/04/20 07:48:04;;;;;;;12.73;10.60;;;18.70;99.90;;;;;;4938002;29;20286;-81
2021/04/20 07:50:36;;;;;;;12.48;11.20;;;19.40;99.90;;;;;;4940728;29;20199;-76
2021/04/20 07:53:10;;;;;;;12.35;10.63;;;18.40;99.90;;;;;;4932951;29;20282;-75
2021/04/20 07:58:40;;;;;;;12.15;10.50;;;19.60;99.90;;;;;;4994105;28;20195;-76
2021/04/20 08:01:34;;;;;;;14.68;10.82;;;19.80;99.90;;;;;;5011689;28;20197;-76
2021/04/20 08:04:11;;;;;;;15.55;10.13;;;19.50;99.90;;;;;;5007862;28;20283;-77
2021/04/20 08:06:39;;;;;;;17.20;10.20;;;19.20;99.90;;;;;;5012072;28;20232;-74
2021/04/20 08:09:12;;;;;;;15.30;10.95;;;18.80;99.90;;;;;;5015790;28;20229;-75
2021/04/20 08:11:46;;;;;;;15.48;10.43;;;19.20;99.90;;;;;;5014096;28;20284;-78
2021/04/20 08:14:23;;;;;;;14.38;10.13;;;19.70;99.90;;;;;;5021357;28;20232;-78
2021/04/20 08:16:56;;;;;;;14.07;10.32;;;19.40;99.90;;;;;;5012968;28;20225;-78
2021/04/20 08:19:27;;;;;;;12.32;9.20;;;20.00;99.90;;;;;;5016083;28;20205;-77
2021/04/20 08:21:57;;;;;;;12.02;9.52;;;20.30;99.90;;;;;;5020187;28;20212;-78
2021/04/20 08:24:55;;;;;;;12.75;9.27;;;21.10;99.90;;;;;;5013827;28;20629;-78
2021/04/20 08:27:28;;;;;;;13.52;9.88;;;20.40;99.90;;;;;;5016449;28;20288;-77
2021/04/20 08:30:04;;;;;;;11.75;9.52;;;20.60;99.90;;;;;;5014072;28;20255;-78
2021/04/20 08:32:41;;;;;;;13.23;9.15;;;20.30;99.90;;;;;;5000372;28;20205;-79
2021/04/20 08:35:25;;;;;;;12.02;9.50;;;20.70;99.90;;;;;;5025071;28;20296;-77
2021/04/20 08:38:25;;;;;;;11.98;8.85;;;21.20;99.90;;;;;;5013482;28;20216;-77
2021/04/20 08:41:10;;;;;;;12.80;9.13;;;21.00;99.90;;;;;;5011745;28;20197;-74
2021/04/20 08:44:09;;;;;;;13.50;8.77;;;21.60;99.90;;;;;;5012423;28;20197;-77
2021/04/20 08:46:47;;;;;;;12.45;8.55;;;21.60;99.90;;;;;;5019868;28;20202;-77
2021/04/20 08:49:22;;;;;;;11.98;8.30;;;21.50;99.90;;;;;;5019994;28;20197;-76
2021/04/20 08:51:54;;;;;;;139.77;18.45;;;21.90;99.90;;;;;;5009413;28;20199;-76
2021/04/20 08:54:36;;;;;;;13.13;9.10;;;22.20;99.90;;;;;;5001093;28;20225;-77
2021/04/20 08:57:13;;;;;;;14.02;8.80;;;22.10;98.10;;;;;;5003136;28;20288;-77
2021/04/20 08:59:53;;;;;;;12.82;8.98;;;21.70;99.80;;;;;;5025009;28;20201;-76
2021/04/20 09:02:33;;;;;;;21.65;8.93;;;20.90;98.80;;;;;;5011359;28;20205;-77
2021/04/20 09:05:16;;;;;;;16.70;8.70;;;21.70;99.90;;;;;;4995549;28;20673;-75
2021/04/20 09:07:54;;;;;;;13.82;8.68;;;22.20;96.60;;;;;;5010481;28;20251;-77
2021/04/20 09:10:27;;;;;;;11.68;8.93;;;22.00;96.90;;;;;;5010265;28;20205;-77
2021/04/20 09:13:07;;;;;;;11.57;8.23;;;21.10;96.70;;;;;;5011145;28;20311;-77
2021/04/20 09:15:37;;;;;;;10.73;8.02;;;21.70;95.30;;;;;;5028221;28;20279;-78
2021/04/20 09:18:08;;;;;;;13.93;8.77;;;22.70;95.20;;;;;;5017840;28;20236;-77
2021/04/20 09:20:40;;;;;;;13.25;8.43;;;22.60;93.60;;;;;;5017146;28;20240;-77
2021/04/20 09:23:18;;;;;;;11.10;8.55;;;23.40;94.50;;;;;;5015089;28;20232;-78
2021/04/20 09:25:51;;;;;;;11.70;8.23;;;23.50;92.60;;;;;;5021112;28;20763;-79
2021/04/20 09:28:24;;;;;;;9.70;7.15;;;24.40;91.70;;;;;;5015788;28;20312;-78
2021/04/20 09:30:54;;;;;;;10.15;7.43;;;24.30;89.00;;;;;;5018388;28;20208;-78
2021/04/20 09:33:24;;;;;;;12.50;7.50;;;23.20;90.40;;;;;;5015425;28;20276;-79
2021/04/20 09:35:52;;;;;;;14.07;7.55;;;23.70;90.80;;;;;;5018798;28;20193;-79
2021/04/20 09:38:19;;;;;;;10.00;7.32;;;23.70;90.20;;;;;;5023898;28;20244;-79
2021/04/20 09:40:47;;;;;;;11.30;7.43;;;23.60;89.30;;;;;;5015032;28;20228;-79
2021/04/20 09:43:30;;;;;;;11.48;7.32;;;23.00;88.40;;;;;;5014616;28;20211;-78
2021/04/20 09:46:04;;;;;;;11.32;6.80;;;23.90;88.20;;;;;;5019679;28;20197;-79
2021/04/20 09:48:41;;;;;;;9.60;7.28;;;23.60;85.70;;;;;;5022895;28;20657;-79
2021/04/20 09:51:13;;;;;;;12.00;7.40;;;23.60;84.60;;;;;;5016520;28;20208;-79
2021/04/20 09:53:54;;;;;;;11.50;7.20;;;23.30;86.50;;;;;;5021009;28;20455;-79
2021/04/20 09:56:25;;;;;;;10.52;7.03;;;23.30;86.00;;;;;;5023607;28;20230;-80
2021/04/20 09:58:53;;;;;;;11.05;7.28;;;24.10;86.50;;;;;;5024778;28;20207;-79
2021/04/20 10:01:42;;;;;;;10.23;7.78;;;24.10;86.90;;;;;;5014536;28;20201;-79
2021/04/20 10:04:09;;;;;;;11.32;7.93;;;23.90;82.60;;;;;;5021171;28;20367;-79
2021/04/20 10:06:57;;;;;;;10.45;6.95;;;23.60;83.50;;;;;;5016074;28;20232;-79
2021/04/20 10:09:32;;;;;;;10.85;7.75;;;23.80;83.60;;;;;;5009297;28;20232;-79
2021/04/20 10:12:06;;;;;;;12.80;8.38;;;23.60;82.60;;;;;;5016203;28;20312;-79
2021/04/20 10:14:47;;;;;;;11.38;7.70;;;24.20;81.00;;;;;;5027484;28;20618;-79
2021/04/20 10:17:17;;;;;;;13.40;7.93;;;24.10;82.80;;;;;;5019537;28;20335;-79
2021/04/20 10:19:51;;;;;;;11.23;7.90;;;24.10;84.60;;;;;;5013633;28;20295;-78
2021/04/20 10:22:27;;;;;;;12.10;7.50;;;23.90;81.40;;;;;;5013578;28;20263;-79
2021/04/20 10:25:07;;;;;;;10.25;7.35;;;24.40;79.00;;;;;;5012501;28;20224;-78
2021/04/20 10:27:36;;;;;;;11.73;7.53;;;24.70;79.30;;;;;;5015405;28;20644;-79
2021/04/20 10:30:11;;;;;;;10.80;7.65;;;25.00;78.30;;;;;;5016856;28;20663;-78
2021/04/20 10:32:41;;;;;;;11.93;8.40;;;23.60;79.00;;;;;;5014323;28;20298;-79
2021/04/20 10:35:14;;;;;;;10.50;7.97;;;23.10;80.10;;;;;;5012328;28;20656;-79
2021/04/20 10:37:42;;;;;;;10.20;7.97;;;22.40;83.50;;;;;;5026511;28;20211;-79
2021/04/20 10:40:12;;;;;;;11.18;8.00;;;22.40;81.70;;;;;;5025887;28;20279;-82
2021/04/20 10:42:40;;;;;;;10.95;7.70;;;20.90;85.10;;;;;;5014808;28;20685;-80
2021/04/20 10:45:09;;;;;;;13.75;8.35;;;20.30;86.60;;;;;;5020833;28;20196;-79
2021/04/20 10:47:37;;;;;;;13.13;8.48;;;20.00;88.80;;;;;;5013967;28;20284;-78
2021/04/20 10:50:06;;;;;;;11.98;8.15;;;19.80;89.40;;;;;;5018933;28;20359;-78
2021/04/20 10:52:34;;;;;;;13.10;8.43;;;18.50;90.80;;;;;;5027938;28;20193;-79
2021/04/20 10:55:06;;;;;;;11.80;8.65;;;19.10;92.10;;;;;;5018528;28;20216;-79
2021/04/20 10:57:37;;;;;;;12.45;8.38;;;20.80;89.90;;;;;;5019950;28;20292;-84
2021/04/20 11:00:06;;;;;;;12.07;8.35;;;24.00;86.30;;;;;;5023319;28;20213;-83
2021/04/20 11:02:37;;;;;;;11.65;8.07;;;25.40;75.30;;;;;;5018099;28;20335;-83
2021/04/20 11:05:05;;;;;;;10.98;7.95;;;24.50;74.50;;;;;;5013912;28;20669;-82
2021/04/20 11:07:35;;;;;;;9.95;7.65;;;23.30;77.40;;;;;;5014133;28;20283;-83
2021/04/20 11:10:04;;;;;;;9.88;7.72;;;21.50;82.60;;;;;;5021861;28;20221;-81
2021/04/20 11:12:31;;;;;;;11.55;7.45;;;20.40;85.80;;;;;;5020966;28;20267;-82
2021/04/20 11:14:58;;;;;;;12.35;8.40;;;20.00;89.50;;;;;;5016881;28;20231;-82
2021/04/20 11:17:30;;;;;;;11.63;8.00;;;19.60;88.70;;;;;;5015824;28;20379;-83
2021/04/20 11:20:09;;;;;;;10.65;8.48;;;19.50;90.60;;;;;;5017595;28;20626;-85
2021/04/20 11:22:41;;;;;;;11.80;9.15;;;20.00;92.60;;;;;;5026441;28;20285;-81
2021/04/20 11:25:18;;;;;;;13.02;9.07;;;19.30;91.70;;;;;;5022423;28;20316;-80
2021/04/20 11:27:49;;;;;;;10.32;8.45;;;19.10;92.60;;;;;;5017637;28;20204;-80
2021/04/20 11:30:20;;;;;;;9.82;8.23;;;19.40;92.90;;;;;;5029342;28;20204;-80
2021/04/20 11:32:50;;;;;;;12.00;8.30;;;19.70;93.40;;;;;;5024534;28;20684;-79
2021/04/20 11:35:21;;;;;;;10.82;8.73;;;19.10;95.10;;;;;;5016533;28;20228;-80
2021/04/20 11:37:48;;;;;;;11.10;8.45;;;18.70;95.40;;;;;;5019009;28;20689;-80
2021/04/20 11:40:23;;;;;;;11.85;8.95;;;18.80;93.10;;;;;;5018989;28;20236;-81
2021/04/20 11:42:51;;;;;;;12.40;7.72;;;19.20;95.20;;;;;;5016858;28;20219;-80
2021/04/20 11:45:20;;;;;;;11.13;7.13;;;21.20;91.00;;;;;;5024677;28;20228;-79
2021/04/20 11:47:54;;;;;;;9.65;6.90;;;24.10;82.70;;;;;;5018404;28;20197;-81
2021/04/20 11:50:23;;;;;;;9.60;7.00;;;25.60;73.70;;;;;;5016949;28;20292;-80
2021/04/20 11:52:57;;;;;;;8.98;7.60;;;25.60;70.50;;;;;;5014622;28;20236;-80
2021/04/20 11:55:29;;;;;;;10.60;7.53;;;22.10;79.80;;;;;;5013493;28;20220;-78
2021/04/20 11:58:02;;;;;;;9.82;8.10;;;22.60;87.60;;;;;;5022748;28;20225;-78
2021/04/20 12:00:30;;;;;;;10.65;7.97;;;23.30;82.80;;;;;;5014449;28;20721;-78
2021/04/20 12:02:58;;;;;;;9.52;8.52;;;23.90;80.10;;;;;;5012509;28;20227;-78
2021/04/20 12:05:28;;;;;;;9.98;7.10;;;22.00;82.30;;;;;;5027125;28;20212;-79
2021/04/20 12:07:55;;;;;;;14.25;8.27;;;23.80;84.20;;;;;;5011715;28;20197;-80
2021/04/20 12:10:21;;;;;;;11.70;8.07;;;22.80;80.30;;;;;;5012916;28;20751;-79
2021/04/20 12:13:20;;;;;;;9.38;7.65;;;23.60;80.90;;;;;;5013910;28;20267;-79
2021/04/20 12:15:52;;;;;;;11.50;9.02;;;22.90;80.40;;;;;;5019410;28;20220;-78
2021/04/20 12:18:57;;;;;;;9.82;7.90;;;20.50;84.20;;;;;;5015401;28;20201;-79
2021/04/20 12:21:26;;;;;;;10.90;7.38;;;20.10;88.90;;;;;;5014650;28;20204;-79
2021/04/20 12:23:57;;;;;;;9.07;8.07;;;21.00;88.40;;;;;;5026463;28;20239;-79
2021/04/20 12:26:26;;;;;;;9.63;7.53;;;21.00;87.20;;;;;;5016964;28;20276;-79
2021/04/20 12:28:56;;;;;;;10.18;8.32;;;20.70;88.80;;;;;;5001695;28;20237;-79
2021/04/20 12:31:30;;;;;;;10.73;8.20;;;20.00;86.90;;;;;;5013909;28;20574;-78
2021/04/20 12:33:56;;;;;;;10.93;7.95;;;19.10;89.60;;;;;;5013943;28;20307;-79
2021/04/20 12:36:29;;;;;;;10.02;7.50;;;18.60;91.20;;;;;;5017294;28;20293;-78
2021/04/20 12:38:59;;;;;;;8.98;7.32;;;19.50;90.40;;;;;;5013312;28;20193;-79
2021/04/20 12:41:28;;;;;;;8.73;7.30;;;20.10;90.10;;;;;;5023114;28;20227;-80
2021/04/20 12:44:23;;;;;;;9.98;6.82;;;20.80;86.50;;;;;;5017307;28;20271;-80
2021/04/20 12:46:53;;;;;;;9.88;7.20;;;20.50;87.80;;;;;;5014015;28;20228;-80
2021/04/20 12:49:27;;;;;;;9.32;7.63;;;19.80;88.70;;;;;;5020478;28;20677;-80
2021/04/20 12:51:57;;;;;;;9.10;6.30;;;19.60;86.40;;;;;;5021124;28;20200;-79
2021/04/20 12:54:27;;;;;;;9.30;7.20;;;20.60;89.70;;;;;;5017747;28;20212;-79
2021/04/20 13:03:24;;;;;;;9.05;6.65;;;24.20;78.60;;;;;;5007966;28;20200;-79
2021/04/20 13:05:51;;;;;;;10.50;7.25;;;23.50;75.50;;;;;;5018811;28;20201;-80
2021/04/20 13:08:21;;;;;;;10.23;7.22;;;22.50;76.10;;;;;;5019063;28;20224;-79
2021/04/20 13:10:56;;;;;;;8.77;6.57;;;21.40;79.80;;;;;;5018076;28;20201;-80
2021/04/20 13:13:36;;;;;;;8.07;7.25;;;22.70;77.60;;;;;;5020199;28;20232;-81
2021/04/20 13:16:10;;;;;;;8.02;6.90;;;21.80;76.90;;;;;;5016438;28;20197;-80
2021/04/20 13:18:37;;;;;;;7.55;6.40;;;21.70;78.50;;;;;;5027106;28;20209;-80